createdAt,value
2019-03-27T00:01:02.753Z,102413.33
2019-03-27T00:03:31.154Z,102416.59
2019-03-27T00:05:59.704Z,102412.34
2019-03-27T00:08:28.098Z,102409.80
2019-03-27T00:10:56.583Z,102413.61
2019-03-27T00:13:25.064Z,102418.53
2019-03-27T00:15:53.507Z,102418.66
2019-03-27T00:18:21.896Z,102417.70
2019-03-27T00:20:50.287Z,102417.86
2019-03-27T00:23:18.778Z,102416.27
2019-03-27T00:25:47.170Z,102420.41
2019-03-27T00:28:15.559Z,102429.95
2019-03-27T00:30:43.970Z,102415.03
2019-03-27T00:33:12.385Z,102416.23
2019-03-27T00:35:40.779Z,102422.84
2019-03-27T00:38:09.168Z,102418.41
2019-03-27T00:40:37.647Z,102415.08
2019-03-27T00:43:06.047Z,102410.78
2019-03-27T00:45:34.451Z,102409.98
2019-03-27T00:48:02.851Z,102411.66
2019-03-27T00:50:31.276Z,102415.28
2019-03-27T00:52:59.703Z,102414.41
2019-03-27T00:55:28.168Z,102418.10
2019-03-27T00:57:56.588Z,102415.07
2019-03-27T01:00:28.207Z,102422.54
2019-03-27T01:02:56.774Z,102421.75
2019-03-27T01:05:25.257Z,102415.94
2019-03-27T01:07:53.654Z,102419.20
2019-03-27T01:10:22.070Z,102415.38
2019-03-27T01:12:50.462Z,102414.03
2019-03-27T01:15:18.900Z,102403.54
2019-03-27T01:17:47.289Z,102408.55
2019-03-27T01:20:15.832Z,102414.62
2019-03-27T01:22:44.319Z,102401.35
2019-03-27T01:25:14.129Z,102403.45
2019-03-27T01:27:42.611Z,102407.06
2019-03-27T01:30:11.332Z,102417.08
2019-03-27T01:32:39.798Z,102418.91
2019-03-27T01:35:08.458Z,102417.24
2019-03-27T01:37:36.858Z,102416.36
2019-03-27T01:40:05.792Z,102411.42
2019-03-27T01:42:34.298Z,102408.97
2019-03-27T01:45:02.781Z,102414.59
2019-03-27T01:47:31.190Z,102406.01
2019-03-27T01:49:59.598Z,102411.20
2019-03-27T01:52:28.026Z,102410.64
2019-03-27T01:54:56.417Z,102410.61
2019-03-27T01:57:24.833Z,102422.00
2019-03-27T01:59:53.225Z,102419.30
2019-03-27T02:02:21.638Z,102420.89
2019-03-27T02:04:50.056Z,102427.41
2019-03-27T02:07:18.456Z,102424.39
2019-03-27T02:09:46.881Z,102420.51
2019-03-27T02:12:15.416Z,102422.14
2019-03-27T02:14:43.830Z,102420.95
2019-03-27T02:17:12.256Z,102419.28
2019-03-27T02:19:40.672Z,102420.88
2019-03-27T02:22:11.390Z,102422.42
2019-03-27T02:24:39.785Z,102410.70
2019-03-27T02:27:08.212Z,102413.72
2019-03-27T02:29:36.608Z,102410.70
2019-03-27T02:32:05.082Z,102417.45
2019-03-27T02:34:33.486Z,102414.11
2019-03-27T02:37:01.874Z,102412.84
2019-03-27T02:39:30.294Z,102410.22
2019-03-27T02:41:58.686Z,102414.39
2019-03-27T02:44:27.111Z,102420.67
2019-03-27T02:46:55.518Z,102415.42
2019-03-27T02:49:23.929Z,102410.33
2019-03-27T02:51:52.330Z,102408.11
2019-03-27T02:54:20.754Z,102411.75
2019-03-27T02:56:49.154Z,102404.52
2019-03-27T02:59:17.578Z,102399.11
2019-03-27T03:01:47.989Z,102406.41
2019-03-27T03:04:16.107Z,102396.33
2019-03-27T03:06:44.500Z,102401.07
2019-03-27T03:09:12.918Z,102401.49
2019-03-27T03:11:41.339Z,102397.99
2019-03-27T03:14:09.737Z,102397.20
2019-03-27T03:16:42.525Z,102397.73
2019-03-27T03:19:08.287Z,102393.95
2019-03-27T03:21:36.770Z,102398.16
2019-03-27T03:24:05.270Z,102397.11
2019-03-27T03:26:33.665Z,102392.33
2019-03-27T03:29:02.081Z,102395.19
2019-03-27T03:31:30.643Z,102398.34
2019-03-27T03:33:59.102Z,102401.67
2019-03-27T03:36:27.514Z,102411.76
2019-03-27T03:38:55.922Z,102418.65
2019-03-27T03:41:24.362Z,102415.36
2019-03-27T03:43:52.779Z,102422.02
2019-03-27T03:46:21.213Z,102417.85
2019-03-27T03:48:49.643Z,102429.46
2019-03-27T03:51:18.304Z,102425.86
2019-03-27T03:53:47.295Z,102433.61
2019-03-27T03:56:15.812Z,102429.22
2019-03-27T03:58:44.424Z,102437.36
2019-03-27T04:01:14.454Z,102432.94
2019-03-27T04:03:47.117Z,102432.34
2019-03-27T04:06:14.857Z,102432.82
2019-03-27T04:08:43.281Z,102435.14
2019-03-27T04:11:11.674Z,102432.22
2019-03-27T04:13:40.090Z,102432.46
2019-03-27T04:16:08.505Z,102440.50
2019-03-27T04:18:36.934Z,102446.66
2019-03-27T04:21:05.301Z,102446.25
2019-03-27T04:23:33.719Z,102447.73
2019-03-27T04:26:09.842Z,102456.59
2019-03-27T04:28:32.281Z,102465.20
2019-03-27T04:31:00.871Z,102462.08
2019-03-27T04:33:29.226Z,102471.86
2019-03-27T04:35:57.638Z,102476.64
2019-03-27T04:38:26.062Z,102476.34
2019-03-27T04:40:54.505Z,102483.65
2019-03-27T04:43:22.904Z,102483.45
2019-03-27T04:45:51.372Z,102479.95
2019-03-27T04:48:19.869Z,102480.23
2019-03-27T04:50:48.262Z,102483.45
2019-03-27T04:53:16.740Z,102478.28
2019-03-27T04:55:45.161Z,102478.30
2019-03-27T04:58:13.589Z,102486.09
2019-03-27T05:00:42.001Z,102480.52
2019-03-27T05:03:10.456Z,102474.36
2019-03-27T05:05:38.820Z,102476.52
2019-03-27T05:08:07.261Z,102473.97
2019-03-27T05:10:35.670Z,102471.92
2019-03-27T05:13:04.127Z,102476.89
2019-03-27T05:15:32.554Z,102482.23
2019-03-27T05:18:00.954Z,102484.68
2019-03-27T05:20:29.364Z,102486.25
2019-03-27T05:22:57.763Z,102488.41
2019-03-27T05:25:26.183Z,102483.16
2019-03-27T05:27:54.701Z,102477.20
2019-03-27T05:30:30.357Z,102476.41
2019-03-27T05:32:58.959Z,102476.33
2019-03-27T05:35:27.369Z,102476.78
2019-03-27T05:37:56.014Z,102476.70
2019-03-27T05:40:24.503Z,102484.13
2019-03-27T05:43:00.716Z,102492.11
2019-03-27T05:45:23.461Z,102495.72
2019-03-27T05:47:59.568Z,102505.15
2019-03-27T05:50:22.078Z,102505.55
2019-03-27T05:52:50.494Z,102508.36
2019-03-27T05:55:18.886Z,102514.73
2019-03-27T05:57:47.357Z,102515.55
2019-03-27T06:00:17.650Z,102517.18
2019-03-27T06:02:46.008Z,102521.35
2019-03-27T06:05:14.491Z,102523.43
2019-03-27T06:07:42.934Z,102527.45
2019-03-27T06:10:11.499Z,102532.80
2019-03-27T06:12:40.018Z,102537.59
2019-03-27T06:15:08.580Z,102537.77
2019-03-27T06:17:37.054Z,102532.88
2019-03-27T06:20:06.768Z,102531.97
2019-03-27T06:22:35.209Z,102528.56
2019-03-27T06:25:04.088Z,102532.91
2019-03-27T06:27:32.483Z,102532.43
2019-03-27T06:30:00.898Z,102535.19
2019-03-27T06:32:29.293Z,102538.41
2019-03-27T06:34:57.723Z,102535.39
2019-03-27T06:37:26.132Z,102538.30
2019-03-27T06:39:54.693Z,102542.20
2019-03-27T06:42:23.190Z,102544.13
2019-03-27T06:44:51.625Z,102548.52
2019-03-27T06:47:20.038Z,102547.20
2019-03-27T06:49:48.437Z,102546.33
2019-03-27T06:52:16.882Z,102553.03
2019-03-27T06:54:45.345Z,102555.53
2019-03-27T06:57:13.797Z,102554.25
2019-03-27T06:59:42.219Z,102556.01
2019-03-27T07:02:10.624Z,102562.54
2019-03-27T07:04:39.108Z,102565.39
2019-03-27T07:07:07.552Z,102557.77
2019-03-27T07:09:35.944Z,102561.27
2019-03-27T07:12:04.343Z,102565.39
2019-03-27T07:14:32.743Z,102564.20
2019-03-27T07:17:01.145Z,102568.20
2019-03-27T07:19:29.646Z,102564.16
2019-03-27T07:21:58.037Z,102572.00
2019-03-27T07:24:26.457Z,102579.89
2019-03-27T07:26:54.858Z,102571.47
2019-03-27T07:29:23.354Z,102569.02
2019-03-27T07:31:51.783Z,102569.75
2019-03-27T07:34:20.213Z,102576.45
2019-03-27T07:36:49.538Z,102571.92
2019-03-27T07:39:17.944Z,102569.64
2019-03-27T07:41:46.370Z,102571.56
2019-03-27T07:44:14.770Z,102571.06
2019-03-27T07:46:43.208Z,102571.48
2019-03-27T07:49:11.620Z,102575.14
2019-03-27T07:51:40.165Z,102573.02
2019-03-27T07:54:08.570Z,102580.14
2019-03-27T07:56:36.995Z,102578.87
2019-03-27T07:59:05.495Z,102570.52
2019-03-27T08:01:33.911Z,102573.08
2019-03-27T08:04:02.323Z,102574.05
2019-03-27T08:06:30.826Z,102578.73
2019-03-27T08:08:59.258Z,102582.13
2019-03-27T08:11:27.833Z,102586.76
2019-03-27T08:13:56.331Z,102576.48
2019-03-27T08:16:24.752Z,102577.12
2019-03-27T08:19:06.584Z,102572.11
2019-03-27T08:21:23.464Z,102575.69
2019-03-27T08:23:51.863Z,102573.98
2019-03-27T08:26:20.263Z,102576.38
2019-03-27T08:28:48.710Z,102578.80
2019-03-27T08:31:17.184Z,102585.81
2019-03-27T08:33:48.456Z,102588.69
2019-03-27T08:36:16.871Z,102591.42
2019-03-27T08:38:45.294Z,102590.91
2019-03-27T08:41:13.765Z,102589.23
2019-03-27T08:43:42.188Z,102598.67
2019-03-27T08:46:10.625Z,102595.56
2019-03-27T08:48:39.420Z,102588.95
2019-03-27T08:51:07.882Z,102588.11
2019-03-27T08:53:36.299Z,102596.63
2019-03-27T08:56:04.868Z,102598.53
2019-03-27T08:58:33.291Z,102602.30
2019-03-27T09:01:01.768Z,102604.20
2019-03-27T09:03:30.193Z,102607.17
2019-03-27T09:05:58.591Z,102613.30
2019-03-27T09:08:26.993Z,102617.20
2019-03-27T09:10:55.501Z,102616.48
2019-03-27T09:13:23.998Z,102614.09
2019-03-27T09:15:52.486Z,102613.70
2019-03-27T09:18:21.008Z,102617.67
2019-03-27T09:20:49.459Z,102620.85
2019-03-27T09:23:17.948Z,102617.27
2019-03-27T09:25:46.469Z,102613.45
2019-03-27T09:28:14.865Z,102615.12
2019-03-27T09:30:43.276Z,102615.92
2019-03-27T09:33:11.688Z,102612.74
2019-03-27T09:35:40.149Z,102621.75
2019-03-27T09:38:08.621Z,102611.07
2019-03-27T09:40:37.243Z,102615.92
2019-03-27T09:43:05.756Z,102621.42
2019-03-27T09:45:34.199Z,102617.20
2019-03-27T09:48:02.615Z,102624.13
2019-03-27T09:50:31.041Z,102620.78
2019-03-27T09:52:59.458Z,102616.73
2019-03-27T09:55:27.983Z,102625.09
2019-03-27T09:57:56.518Z,102626.75
2019-03-27T10:00:46.350Z,102626.53
2019-03-27T10:03:14.805Z,102628.27
2019-03-27T10:05:43.290Z,102624.44
2019-03-27T10:08:11.741Z,102634.63
2019-03-27T10:10:40.261Z,102629.03
2019-03-27T10:13:08.702Z,102628.31
2019-03-27T10:15:37.201Z,102625.69
2019-03-27T10:18:05.649Z,102626.77
2019-03-27T10:20:34.072Z,102624.95
2019-03-27T10:23:02.479Z,102625.50
2019-03-27T10:25:30.918Z,102628.31
2019-03-27T10:27:59.331Z,102624.88
2019-03-27T10:30:27.786Z,102628.62
2019-03-27T10:32:56.213Z,102625.42
2019-03-27T10:35:24.639Z,102626.14
2019-03-27T10:37:53.050Z,102629.98
2019-03-27T10:40:21.564Z,102632.06
2019-03-27T10:42:50.049Z,102633.22
2019-03-27T10:45:18.440Z,102634.83
2019-03-27T10:47:46.872Z,102636.66
2019-03-27T10:52:45.573Z,102636.78
2019-03-27T10:55:14.197Z,102628.79
2019-03-27T10:57:42.639Z,102633.05
2019-03-27T11:00:12.508Z,102630.75
2019-03-27T11:02:40.964Z,102635.60
2019-03-27T11:05:09.625Z,102632.50
2019-03-27T11:07:38.028Z,102632.24
2019-03-27T11:10:08.190Z,102637.62
2019-03-27T11:12:36.682Z,102631.84
2019-03-27T11:15:07.588Z,102631.27
2019-03-27T11:17:35.982Z,102626.64
2019-03-27T11:20:05.522Z,102623.72
2019-03-27T11:22:33.951Z,102612.58
2019-03-27T11:25:02.497Z,102611.97
2019-03-27T11:27:30.917Z,102619.53
2019-03-27T11:29:59.301Z,102614.27
2019-03-27T11:32:27.730Z,102608.41
2019-03-27T11:34:56.163Z,102613.20
2019-03-27T11:37:24.569Z,102613.04
2019-03-27T11:39:53.049Z,102616.55
2019-03-27T11:42:21.490Z,102612.58
2019-03-27T11:44:49.893Z,102605.30
2019-03-27T11:47:18.296Z,102605.30
2019-03-27T11:49:46.763Z,102603.62
2019-03-27T11:52:15.163Z,102601.53
2019-03-27T11:54:43.651Z,102606.94
2019-03-27T11:57:12.079Z,102614.28
2019-03-27T11:59:53.286Z,102619.38
2019-03-27T12:02:10.663Z,102615.91
2019-03-27T12:04:39.065Z,102615.73
2019-03-27T12:07:07.488Z,102611.12
2019-03-27T12:09:35.872Z,102614.20
2019-03-27T12:12:04.421Z,102612.45
2019-03-27T12:14:32.798Z,102611.04
2019-03-27T12:17:01.303Z,102609.63
2019-03-27T12:19:29.705Z,102600.27
2019-03-27T12:21:58.147Z,102602.22
2019-03-27T12:24:28.617Z,102594.28
2019-03-27T12:26:56.689Z,102596.81
2019-03-27T12:29:25.163Z,102604.69
2019-03-27T12:31:53.591Z,102603.94
2019-03-27T12:34:21.992Z,102597.94
2019-03-27T12:36:50.503Z,102594.79
2019-03-27T12:39:18.913Z,102596.66
2019-03-27T12:41:47.415Z,102589.75
2019-03-27T12:44:15.839Z,102584.32
2019-03-27T12:46:44.252Z,102584.30
2019-03-27T12:49:12.683Z,102576.52
2019-03-27T12:51:41.158Z,102579.59
2019-03-27T12:54:09.633Z,102576.83
2019-03-27T12:56:38.053Z,102569.48
2019-03-27T12:59:06.519Z,102573.52
2019-03-27T13:01:34.946Z,102571.94
2019-03-27T13:04:03.357Z,102586.94
2019-03-27T13:06:31.798Z,102578.17
2019-03-27T13:09:00.275Z,102576.88
2019-03-27T13:11:28.701Z,102578.16
2019-03-27T13:13:57.200Z,102568.80
2019-03-27T13:16:25.693Z,102571.61
2019-03-27T13:18:54.195Z,102574.46
2019-03-27T13:21:26.580Z,102575.13
2019-03-27T13:23:52.806Z,102574.52
2019-03-27T13:26:21.203Z,102576.73
2019-03-27T13:28:49.665Z,102578.56
2019-03-27T13:31:18.119Z,102582.75
2019-03-27T13:33:46.562Z,102585.66
2019-03-27T13:36:15.157Z,102578.48
2019-03-27T13:38:43.656Z,102578.13
2019-03-27T13:41:12.089Z,102571.52
2019-03-27T13:43:40.502Z,102576.03
2019-03-27T13:46:08.907Z,102575.23
2019-03-27T13:48:37.357Z,102578.82
2019-03-27T13:51:05.853Z,102578.08
2019-03-27T13:53:34.301Z,102573.45
2019-03-27T13:56:02.720Z,102569.95
2019-03-27T13:58:31.188Z,102572.19
2019-03-27T14:00:59.716Z,102573.17
2019-03-27T14:03:28.190Z,102575.68
2019-03-27T14:05:56.619Z,102574.05
2019-03-27T14:08:25.121Z,102581.20
2019-03-27T14:10:53.536Z,102579.63
2019-03-27T14:13:22.064Z,102585.30
2019-03-27T14:15:50.464Z,102590.83
2019-03-27T14:18:18.884Z,102594.73
2019-03-27T14:20:47.344Z,102586.53
2019-03-27T14:23:15.736Z,102581.77
2019-03-27T14:25:44.153Z,102581.88
2019-03-27T14:28:12.588Z,102585.86
2019-03-27T14:30:55.202Z,102588.08
2019-03-27T14:33:23.702Z,102581.91
2019-03-27T14:35:52.428Z,102576.36
2019-03-27T14:38:20.910Z,102569.20
2019-03-27T14:40:49.393Z,102571.11
2019-03-27T14:43:17.896Z,102574.06
2019-03-27T14:45:46.335Z,102564.96
2019-03-27T14:48:14.876Z,102564.14
2019-03-27T14:50:43.293Z,102564.66
2019-03-27T14:53:11.863Z,102562.86
2019-03-27T14:55:40.294Z,102561.17
2019-03-27T14:58:08.734Z,102565.19
2019-03-27T15:00:37.174Z,102565.59
2019-03-27T15:03:05.584Z,102558.20
2019-03-27T15:05:34.001Z,102563.44
2019-03-27T15:08:04.273Z,102561.95
2019-03-27T15:10:32.575Z,102570.33
2019-03-27T15:13:00.978Z,102575.45
2019-03-27T15:15:29.403Z,102570.33
2019-03-27T15:17:57.809Z,102572.31
2019-03-27T15:20:26.214Z,102566.27
2019-03-27T15:22:54.643Z,102558.57
2019-03-27T15:25:23.058Z,102559.45
2019-03-27T15:27:51.497Z,102565.19
2019-03-27T15:30:20.028Z,102564.50
2019-03-27T15:32:48.462Z,102566.30
2019-03-27T15:35:16.928Z,102571.28
2019-03-27T15:37:45.356Z,102571.42
2019-03-27T15:40:14.432Z,102569.63
2019-03-27T15:42:42.839Z,102572.08
2019-03-27T15:45:11.718Z,102565.44
2019-03-27T15:47:40.151Z,102557.66
2019-03-27T15:50:08.725Z,102561.91
2019-03-27T15:52:37.465Z,102563.19
2019-03-27T15:55:06.573Z,102561.44
2019-03-27T15:57:34.984Z,102562.96
2019-03-27T16:00:05.145Z,102563.61
2019-03-27T16:02:33.649Z,102567.86
2019-03-27T16:05:02.055Z,102568.11
2019-03-27T16:07:31.438Z,102564.89
2019-03-27T16:10:00.084Z,102560.84
2019-03-27T16:12:28.515Z,102559.55
2019-03-27T16:14:56.929Z,102564.36
2019-03-27T16:17:25.339Z,102560.42
2019-03-27T16:19:53.861Z,102561.59
2019-03-27T16:22:22.274Z,102559.78
2019-03-27T16:24:50.671Z,102560.72
2019-03-27T16:27:19.165Z,102557.86
2019-03-27T16:29:47.564Z,102561.80
2019-03-27T16:32:15.996Z,102560.37
2019-03-27T16:34:44.419Z,102555.24
2019-03-27T16:37:12.853Z,102556.58
2019-03-27T16:39:41.289Z,102557.81
2019-03-27T16:42:09.782Z,102561.19
2019-03-27T16:44:38.280Z,102561.48
2019-03-27T16:47:06.928Z,102562.41
2019-03-27T16:49:35.476Z,102565.49
2019-03-27T16:52:04.065Z,102564.21
2019-03-27T16:54:32.565Z,102565.03
2019-03-27T16:57:00.974Z,102570.67
2019-03-27T16:59:29.391Z,102573.82
2019-03-27T17:01:57.894Z,102577.48
2019-03-27T17:04:26.306Z,102575.68
2019-03-27T17:06:54.799Z,102576.14
2019-03-27T17:09:23.230Z,102574.80
2019-03-27T17:11:51.654Z,102576.90
2019-03-27T17:14:20.074Z,102577.67
2019-03-27T17:16:48.491Z,102582.74
2019-03-27T17:19:16.932Z,102577.06
2019-03-27T17:21:45.415Z,102578.34
2019-03-27T17:24:13.844Z,102572.81
2019-03-27T17:26:42.247Z,102573.72
2019-03-27T17:29:10.696Z,102583.15
2019-03-27T17:31:39.111Z,102580.44
2019-03-27T17:34:07.537Z,102583.75
2019-03-27T17:36:35.969Z,102590.44
2019-03-27T17:39:06.791Z,102590.31
2019-03-27T17:41:35.358Z,102582.98
2019-03-27T17:44:03.845Z,102580.73
2019-03-27T17:46:32.290Z,102578.17
2019-03-27T17:49:00.965Z,102581.48
2019-03-27T17:51:29.392Z,102577.05
2019-03-27T17:53:57.807Z,102581.12
2019-03-27T17:56:26.347Z,102579.30
2019-03-27T17:58:54.747Z,102583.80
2019-03-27T18:01:23.158Z,102588.33
2019-03-27T18:03:51.633Z,102589.08
2019-03-27T18:06:20.052Z,102588.14
2019-03-27T18:08:48.535Z,102591.45
2019-03-27T18:11:16.981Z,102594.66
2019-03-27T18:13:45.393Z,102592.66
2019-03-27T18:16:16.983Z,102598.18
2019-03-27T18:18:44.011Z,102601.83
2019-03-27T18:21:12.417Z,102602.95
2019-03-27T18:23:46.187Z,102604.03
2019-03-27T18:26:10.982Z,102612.45
2019-03-27T18:28:39.412Z,102606.99
2019-03-27T18:31:07.944Z,102606.46
2019-03-27T18:33:36.392Z,102604.98
2019-03-27T18:36:04.913Z,102610.55
2019-03-27T18:38:33.317Z,102615.73
2019-03-27T18:41:01.731Z,102613.17
2019-03-27T18:43:30.154Z,102612.58
2019-03-27T18:45:58.573Z,102611.91
2019-03-27T18:48:26.992Z,102615.38
2019-03-27T18:50:55.414Z,102624.32
2019-03-27T18:53:23.839Z,102617.13
2019-03-27T18:55:52.266Z,102632.94
2019-03-27T18:58:20.691Z,102635.83
2019-03-27T19:00:49.206Z,102634.31
2019-03-27T19:03:17.684Z,102632.63
2019-03-27T19:05:46.095Z,102637.33
2019-03-27T19:08:14.603Z,102643.31
2019-03-27T19:10:43.170Z,102644.40
2019-03-27T19:13:11.565Z,102646.32
2019-03-27T19:15:40.051Z,102642.17
2019-03-27T19:18:08.418Z,102645.54
2019-03-27T19:20:36.977Z,102641.56
2019-03-27T19:23:05.493Z,102644.80
2019-03-27T19:25:33.966Z,102645.42
2019-03-27T19:28:02.465Z,102652.53
2019-03-27T19:30:31.007Z,102654.23
2019-03-27T19:32:59.415Z,102652.28
2019-03-27T19:35:27.808Z,102659.02
2019-03-27T19:37:56.352Z,102658.53
2019-03-27T19:40:24.700Z,102657.33
2019-03-27T19:42:53.147Z,102645.59
2019-03-27T19:45:21.554Z,102650.30
2019-03-27T19:47:50.003Z,102651.52
2019-03-27T19:50:18.951Z,102649.12
2019-03-27T19:52:47.339Z,102655.51
2019-03-27T19:55:15.852Z,102658.13
2019-03-27T19:57:44.298Z,102647.48
2019-03-27T20:00:13.551Z,102660.53
2019-03-27T20:02:42.127Z,102660.20
2019-03-27T20:05:10.798Z,102658.59
2019-03-27T20:07:39.276Z,102658.13
2019-03-27T20:10:08.814Z,102655.43
2019-03-27T20:12:37.267Z,102659.66
2019-03-27T20:15:12.397Z,102657.30
2019-03-27T20:17:38.142Z,102661.13
2019-03-27T20:20:08.772Z,102663.36
2019-03-27T20:22:37.354Z,102661.79
2019-03-27T20:25:08.592Z,102660.11
2019-03-27T20:27:37.156Z,102660.11
2019-03-27T20:30:11.582Z,102659.31
2019-03-27T20:32:40.039Z,102667.37
2019-03-27T20:35:08.591Z,102668.98
2019-03-27T20:37:37.112Z,102670.59
2019-03-27T20:40:09.154Z,102665.41
2019-03-27T20:42:37.852Z,102664.61
2019-03-27T20:45:07.377Z,102670.44
2019-03-27T20:47:35.831Z,102668.52
2019-03-27T20:50:07.212Z,102671.25
2019-03-27T20:52:35.633Z,102665.88
2019-03-27T20:55:05.095Z,102665.23
2019-03-27T20:57:33.603Z,102672.41
2019-03-27T21:00:02.099Z,102675.08
2019-03-27T21:02:30.496Z,102669.89
2019-03-27T21:04:58.939Z,102671.46
2019-03-27T21:07:27.365Z,102667.56
2019-03-27T21:09:55.856Z,102669.23
2019-03-27T21:12:24.377Z,102664.28
2019-03-27T21:14:52.822Z,102666.94
2019-03-27T21:17:21.332Z,102669.23
2019-03-27T21:19:49.787Z,102672.81
2019-03-27T21:22:18.225Z,102672.45
2019-03-27T21:24:46.784Z,102669.89
2019-03-27T21:27:16.861Z,102675.30
2019-03-27T21:29:45.520Z,102677.20
2019-03-27T21:32:14.017Z,102676.09
2019-03-27T21:34:42.940Z,102676.17
2019-03-27T21:37:11.482Z,102676.17
2019-03-27T21:39:39.946Z,102677.92
2019-03-27T21:42:08.358Z,102672.74
2019-03-27T21:44:36.933Z,102671.72
2019-03-27T21:47:05.453Z,102675.30
2019-03-27T21:49:33.976Z,102673.40
2019-03-27T21:52:02.417Z,102677.70
2019-03-27T21:54:30.841Z,102679.70
2019-03-27T21:56:59.331Z,102680.66
2019-03-27T21:59:27.816Z,102681.94
2019-03-27T22:01:56.297Z,102681.20
2019-03-27T22:04:24.759Z,102680.73
2019-03-27T22:06:53.199Z,102679.60
2019-03-27T22:09:21.612Z,102677.22
2019-03-27T22:11:50.155Z,102677.22
2019-03-27T22:14:18.657Z,102676.42
2019-03-27T22:16:47.049Z,102675.69
2019-03-27T22:19:15.497Z,102674.66
2019-03-27T22:21:44.073Z,102674.62
2019-03-27T22:24:12.444Z,102680.13
2019-03-27T22:26:40.872Z,102673.27
2019-03-27T22:29:09.419Z,102686.02
2019-03-27T22:31:37.895Z,102686.02
2019-03-27T22:34:06.329Z,102685.22
2019-03-27T22:36:34.737Z,102688.80
2019-03-27T22:39:04.319Z,102688.80
2019-03-27T22:41:32.783Z,102693.52
2019-03-27T22:44:01.275Z,102693.66
2019-03-27T22:46:29.678Z,102685.53
2019-03-27T22:48:58.186Z,102688.08
2019-03-27T22:51:26.588Z,102684.16
2019-03-27T22:53:54.993Z,102693.90
2019-03-27T22:56:23.416Z,102692.00
2019-03-27T22:58:51.934Z,102689.69
2019-03-27T23:01:20.466Z,102687.46
2019-03-27T23:03:48.905Z,102685.23
2019-03-27T23:06:17.403Z,102694.96
2019-03-27T23:08:45.795Z,102693.09
2019-03-27T23:11:14.277Z,102691.91
2019-03-27T23:13:42.752Z,102690.95
2019-03-27T23:16:11.232Z,102685.70
2019-03-27T23:18:39.619Z,102688.46
2019-03-27T23:21:08.087Z,102689.18
2019-03-27T23:23:36.540Z,102697.63
2019-03-27T23:26:05.068Z,102692.13
2019-03-27T23:28:33.469Z,102699.23
2019-03-27T23:31:01.887Z,102697.16
2019-03-27T23:33:30.311Z,102696.52
2019-03-27T23:35:58.719Z,102695.56
2019-03-27T23:38:27.148Z,102697.98
2019-03-27T23:40:55.568Z,102700.84
2019-03-27T23:43:24.099Z,102697.49
2019-03-27T23:45:52.581Z,102702.73
2019-03-27T23:48:20.972Z,102700.02
2019-03-27T23:50:49.417Z,102695.00
2019-03-27T23:53:17.825Z,102698.91
2019-03-27T23:55:46.390Z,102698.59
2019-03-27T23:58:14.794Z,102698.59
